sensor_id;sensor_type;location;lat;lon;timestamp;pressure;altitude;pressure_sealevel;temperature;humidity
50292;BME280;36190;54.980;73.388;2023-03-31T00:00:27;102621.72;;;-5.76;60.84
50292;BME280;36190;54.980;73.388;2023-03-31T00:02:55;102619.16;;;-5.78;60.64
50292;BME280;36190;54.980;73.388;2023-03-31T00:05:23;102625.22;;;-5.81;60.54
50292;BME280;36190;54.980;73.388;2023-03-31T00:07:53;102631.28;;;-5.80;60.48
50292;BME280;36190;54.980;73.388;2023-03-31T00:10:28;102633.88;;;-5.83;60.39
50292;BME280;36190;54.980;73.388;2023-03-31T00:12:56;102632.16;;;-5.86;60.45
50292;BME280;36190;54.980;73.388;2023-03-31T00:15:24;102625.25;;;-5.90;60.42
50292;BME280;36190;54.980;73.388;2023-03-31T00:17:52;102628.75;;;-5.91;60.48
50292;BME280;36190;54.980;73.388;2023-03-31T00:20:19;102629.63;;;-5.92;60.41
50292;BME280;36190;54.980;73.388;2023-03-31T00:22:47;102640.00;;;-5.92;60.25
50292;BME280;36190;54.980;73.388;2023-03-31T00:25:15;102642.59;;;-5.95;60.24
50292;BME280;36190;54.980;73.388;2023-03-31T00:27:44;102651.25;;;-5.93;60.26
50292;BME280;36190;54.980;73.388;2023-03-31T00:30:15;102659.94;;;-5.94;59.98
50292;BME280;36190;54.980;73.388;2023-03-31T00:32:42;102651.28;;;-5.96;60.07
50292;BME280;36190;54.980;73.388;2023-03-31T00:35:10;102649.56;;;-5.97;60.00
50292;BME280;36190;54.980;73.388;2023-03-31T00:37:38;102659.06;;;-5.98;59.96
50292;BME280;36190;54.980;73.388;2023-03-31T00:40:08;102663.44;;;-5.98;60.03
50292;BME280;36190;54.980;73.388;2023-03-31T00:42:39;102668.63;;;-5.98;59.99
50292;BME280;36190;54.980;73.388;2023-03-31T00:45:28;102664.28;;;-5.96;60.09
50292;BME280;36190;54.980;73.388;2023-03-31T00:48:01;102664.28;;;-5.98;60.03
50292;BME280;36190;54.980;73.388;2023-03-31T00:50:40;102667.75;;;-5.97;59.98
50292;BME280;36190;54.980;73.388;2023-03-31T00:53:11;102647.88;;;-6.09;59.93
50292;BME280;36190;54.980;73.388;2023-03-31T00:55:41;102678.16;;;-5.99;59.82
50292;BME280;36190;54.980;73.388;2023-03-31T00:58:11;102680.75;;;-5.99;59.93
50292;BME280;36190;54.980;73.388;2023-03-31T01:00:46;102679.91;;;-5.99;59.85
50292;BME280;36190;54.980;73.388;2023-03-31T01:03:16;102685.06;;;-5.98;59.85
50292;BME280;36190;54.980;73.388;2023-03-31T01:05:49;102686.81;;;-5.97;59.92
50292;BME280;36190;54.980;73.388;2023-03-31T01:08:19;102674.75;;;-6.09;59.97
50292;BME280;36190;54.980;73.388;2023-03-31T01:10:53;102685.94;;;-5.97;59.86
50292;BME280;36190;54.980;73.388;2023-03-31T01:13:21;102693.72;;;-5.93;59.71
50292;BME280;36190;54.980;73.388;2023-03-31T01:15:52;102692.84;;;-5.91;59.73
50292;BME280;36190;54.980;73.388;2023-03-31T01:18:19;102691.13;;;-5.88;59.74
50292;BME280;36190;54.980;73.388;2023-03-31T01:21:11;102695.44;;;-5.84;59.66
50292;BME280;36190;54.980;73.388;2023-03-31T01:27:01;102702.34;;;-5.75;59.65
50292;BME280;36190;54.980;73.388;2023-03-31T01:29:49;102704.91;;;-5.70;59.53
50292;BME280;36190;54.980;73.388;2023-03-31T01:32:42;102712.72;;;-5.66;59.37
50292;BME280;36190;54.980;73.388;2023-03-31T01:35:31;102713.56;;;-5.59;59.27
50292;BME280;36190;54.980;73.388;2023-03-31T01:38:29;102722.22;;;-5.50;59.12
50292;BME280;36190;54.980;73.388;2023-03-31T01:41:19;102679.78;;;-5.63;58.96
50292;BME280;36190;54.980;73.388;2023-03-31T01:43:58;102710.84;;;-5.34;58.78
50292;BME280;36190;54.980;73.388;2023-03-31T01:46:32;102713.41;;;-5.28;58.49
50292;BME280;36190;54.980;73.388;2023-03-31T01:49:10;102714.22;;;-5.15;58.45
50292;BME280;36190;54.980;73.388;2023-03-31T01:51:49;102725.44;;;-5.02;58.18
50292;BME280;36190;54.980;73.388;2023-03-31T01:54:25;102683.81;;;-5.11;57.88
50292;BME280;36190;54.980;73.388;2023-03-31T01:56:57;102707.97;;;-4.90;57.52
50292;BME280;36190;54.980;73.388;2023-03-31T01:59:28;102729.53;;;-4.68;57.27
50292;BME280;36190;54.980;73.388;2023-03-31T02:01:58;102727.72;;;-4.60;57.11
50292;BME280;36190;54.980;73.388;2023-03-31T02:04:32;102731.97;;;-4.45;56.77
50292;BME280;36190;54.980;73.388;2023-03-31T02:07:04;102737.06;;;-4.32;56.58
50292;BME280;36190;54.980;73.388;2023-03-31T02:09:36;102740.41;;;-4.18;56.49
50292;BME280;36190;54.980;73.388;2023-03-31T02:12:08;102738.53;;;-4.05;55.93
50292;BME280;36190;54.980;73.388;2023-03-31T02:14:39;102745.38;;;-3.91;55.73
50292;BME280;36190;54.980;73.388;2023-03-31T02:17:12;102742.63;;;-3.80;55.23
50292;BME280;36190;54.980;73.388;2023-03-31T02:19:45;102743.38;;;-3.69;55.09
50292;BME280;36190;54.980;73.388;2023-03-31T02:22:15;102748.53;;;-3.63;54.74
50292;BME280;36190;54.980;73.388;2023-03-31T02:24:46;102754.53;;;-3.54;54.27
50292;BME280;36190;54.980;73.388;2023-03-31T02:27:19;102748.38;;;-3.49;54.20
50292;BME280;36190;54.980;73.388;2023-03-31T02:29:49;102758.69;;;-3.38;54.09
50292;BME280;36190;54.980;73.388;2023-03-31T02:32:20;102762.09;;;-3.33;53.36
50292;BME280;36190;54.980;73.388;2023-03-31T02:34:48;102766.41;;;-3.27;53.34
50292;BME280;36190;54.980;73.388;2023-03-31T02:37:16;102764.63;;;-3.25;53.21
50292;BME280;36190;54.980;73.388;2023-03-31T02:39:45;102774.94;;;-3.17;53.11
50292;BME280;36190;54.980;73.388;2023-03-31T02:42:16;102773.09;;;-3.07;52.81
50292;BME280;36190;54.980;73.388;2023-03-31T02:44:43;102770.34;;;-2.99;52.65
50292;BME280;36190;54.980;73.388;2023-03-31T02:47:13;102772.00;;;-2.91;52.32
50292;BME280;36190;54.980;73.388;2023-03-31T02:49:44;102784.03;;;-2.79;52.05
50292;BME280;36190;54.980;73.388;2023-03-31T02:55:45;102772.28;;;-2.51;51.10
50292;BME280;36190;54.980;73.388;2023-03-31T02:58:29;102765.34;;;-2.54;50.93
50292;BME280;36190;54.980;73.388;2023-03-31T03:01:10;102791.34;;;-2.44;50.96
50292;BME280;36190;54.980;73.388;2023-03-31T03:03:49;102786.13;;;-2.44;50.57
50292;BME280;36190;54.980;73.388;2023-03-31T03:06:33;102784.44;;;-2.49;50.34
50292;BME280;36190;54.980;73.388;2023-03-31T03:09:09;102795.84;;;-2.53;50.30
50292;BME280;36190;54.980;73.388;2023-03-31T03:11:45;102795.09;;;-2.63;50.04
50292;BME280;36190;54.980;73.388;2023-03-31T03:14:25;102797.63;;;-2.58;50.29
50292;BME280;36190;54.980;73.388;2023-03-31T03:16:58;102808.00;;;-2.52;50.32
50292;BME280;36190;54.980;73.388;2023-03-31T03:19:27;102815.75;;;-2.44;50.21
50292;BME280;36190;54.980;73.388;2023-03-31T03:21:55;102820.03;;;-2.38;50.07
50292;BME280;36190;54.980;73.388;2023-03-31T03:24:22;102818.25;;;-2.36;49.90
50292;BME280;36190;54.980;73.388;2023-03-31T03:26:54;102823.22;;;-2.21;49.80
50292;BME280;36190;54.980;73.388;2023-03-31T03:29:23;102825.59;;;-2.07;49.26
50292;BME280;36190;54.980;73.388;2023-03-31T03:31:51;102830.59;;;-1.92;49.12
50292;BME280;36190;54.980;73.388;2023-03-31T03:34:19;102835.63;;;-1.78;48.74
50292;BME280;36190;54.980;73.388;2023-03-31T03:36:46;102839.69;;;-1.63;48.43
50292;BME280;36190;54.980;73.388;2023-03-31T03:39:14;102841.25;;;-1.53;48.28
50292;BME280;36190;54.980;73.388;2023-03-31T03:41:41;102834.97;;;-1.43;47.83
50292;BME280;36190;54.980;73.388;2023-03-31T03:44:09;102840.88;;;-1.33;47.63
50292;BME280;36190;54.980;73.388;2023-03-31T03:46:37;102834.59;;;-1.24;47.27
50292;BME280;36190;54.980;73.388;2023-03-31T03:49:05;102837.94;;;-1.17;46.99
50292;BME280;36190;54.980;73.388;2023-03-31T03:51:32;102842.34;;;-1.18;46.67
50292;BME280;36190;54.980;73.388;2023-03-31T03:54:01;102842.34;;;-1.18;46.64
50292;BME280;36190;54.980;73.388;2023-03-31T03:56:28;102844.09;;;-1.20;46.55
50292;BME280;36190;54.980;73.388;2023-03-31T03:58:56;102845.16;;;-1.29;46.39
50292;BME280;36190;54.980;73.388;2023-03-31T04:01:23;102846.91;;;-1.29;46.46
50292;BME280;36190;54.980;73.388;2023-03-31T04:03:52;102843.28;;;-1.23;46.19
50292;BME280;36190;54.980;73.388;2023-03-31T04:06:19;102851.03;;;-1.16;45.97
50292;BME280;36190;54.980;73.388;2023-03-31T04:08:47;102854.34;;;-1.07;45.67
50292;BME280;36190;54.980;73.388;2023-03-31T04:11:16;102858.59;;;-1.02;45.42
50292;BME280;36190;54.980;73.388;2023-03-31T04:13:43;102855.78;;;-0.92;45.21
50292;BME280;36190;54.980;73.388;2023-03-31T04:16:11;102864.41;;;-0.86;44.93
50292;BME280;36190;54.980;73.388;2023-03-31T04:18:39;102856.44;;;-0.82;44.74
50292;BME280;36190;54.980;73.388;2023-03-31T04:21:15;102862.59;;;-0.84;44.28
50292;BME280;36190;54.980;73.388;2023-03-31T04:23:48;102852.09;;;-0.84;44.29
50292;BME280;36190;54.980;73.388;2023-03-31T04:26:24;102869.47;;;-0.79;43.92
50292;BME280;36190;54.980;73.388;2023-03-31T04:28:56;102868.84;;;-0.91;43.79
50292;BME280;36190;54.980;73.388;2023-03-31T04:31:25;102876.78;;;-0.94;43.94
50292;BME280;36190;54.980;73.388;2023-03-31T04:33:55;102869.63;;;-0.86;44.17
50292;BME280;36190;54.980;73.388;2023-03-31T04:36:28;102867.63;;;-0.74;43.76
50292;BME280;36190;54.980;73.388;2023-03-31T04:38:56;102875.38;;;-0.68;43.70
50292;BME280;36190;54.980;73.388;2023-03-31T04:41:24;102873.47;;;-0.61;43.65
50292;BME280;36190;54.980;73.388;2023-03-31T04:43:53;102867.09;;;-0.49;43.34
50292;BME280;36190;54.980;73.388;2023-03-31T04:46:21;102865.06;;;-0.38;43.15
50292;BME280;36190;54.980;73.388;2023-03-31T04:48:48;102864.88;;;-0.29;43.15
50292;BME280;36190;54.980;73.388;2023-03-31T04:51:16;102867.44;;;-0.25;42.91
50292;BME280;36190;54.980;73.388;2023-03-31T04:53:46;102865.63;;;-0.23;42.37
50292;BME280;36190;54.980;73.388;2023-03-31T04:56:13;102859.78;;;-0.35;42.66
50292;BME280;36190;54.980;73.388;2023-03-31T04:58:41;102858.06;;;-0.36;42.49
50292;BME280;36190;54.980;73.388;2023-03-31T05:01:09;102853.63;;;-0.34;42.48
50292;BME280;36190;54.980;73.388;2023-03-31T05:03:38;102859.72;;;-0.33;42.31
50292;BME280;36190;54.980;73.388;2023-03-31T05:06:06;102860.47;;;-0.28;42.46
50292;BME280;36190;54.980;73.388;2023-03-31T05:08:34;102855.00;;;-0.19;42.21
50292;BME280;36190;54.980;73.388;2023-03-31T05:11:03;102853.13;;;-0.12;42.13
50292;BME280;36190;54.980;73.388;2023-03-31T05:13:31;102865.94;;;-0.01;42.17
50292;BME280;36190;54.980;73.388;2023-03-31T05:16:05;102860.38;;;0.13;41.52
50292;BME280;36190;54.980;73.388;2023-03-31T05:18:32;102856.63;;;0.22;41.74
50292;BME280;36190;54.980;73.388;2023-03-31T05:21:09;102873.16;;;0.27;40.86
50292;BME280;36190;54.980;73.388;2023-03-31T05:23:37;102861.72;;;0.30;41.65
50292;BME280;36190;54.980;73.388;2023-03-31T05:26:06;102864.13;;;0.37;41.24
50292;BME280;36190;54.980;73.388;2023-03-31T05:28:34;102859.75;;;0.38;41.09
50292;BME280;36190;54.980;73.388;2023-03-31T05:31:03;102852.78;;;0.37;41.02
50292;BME280;36190;54.980;73.388;2023-03-31T05:33:31;102858.72;;;0.44;40.92
50292;BME280;36190;54.980;73.388;2023-03-31T05:35:59;102863.94;;;0.45;40.82
50292;BME280;36190;54.980;73.388;2023-03-31T05:38:27;102852.53;;;0.46;40.84
50292;BME280;36190;54.980;73.388;2023-03-31T05:40:56;102863.03;;;0.46;40.69
50292;BME280;36190;54.980;73.388;2023-03-31T05:43:25;102863.63;;;0.56;40.43
50292;BME280;36190;54.980;73.388;2023-03-31T05:45:52;102860.88;;;0.61;40.17
50292;BME280;36190;54.980;73.388;2023-03-31T05:48:20;102864.59;;;0.53;40.07
50292;BME280;36190;54.980;73.388;2023-03-31T05:50:47;102851.56;;;0.49;39.87
50292;BME280;36190;54.980;73.388;2023-03-31T05:53:15;102858.03;;;0.37;39.53
50292;BME280;36190;54.980;73.388;2023-03-31T05:55:42;102860.03;;;0.27;39.45
50292;BME280;36190;54.980;73.388;2023-03-31T05:58:10;102867.34;;;0.14;39.16
50292;BME280;36190;54.980;73.388;2023-03-31T06:00:39;102858.03;;;0.01;39.13
50292;BME280;36190;54.980;73.388;2023-03-31T06:03:09;102861.00;;;-0.12;39.24
50292;BME280;36190;54.980;73.388;2023-03-31T06:05:36;102862.78;;;-0.14;39.32
50292;BME280;36190;54.980;73.388;2023-03-31T06:08:04;102866.06;;;-0.06;39.32
50292;BME280;36190;54.980;73.388;2023-03-31T06:10:32;102863.28;;;0.02;39.10
50292;BME280;36190;54.980;73.388;2023-03-31T06:13:00;102856.84;;;0.14;39.09
50292;BME280;36190;54.980;73.388;2023-03-31T06:15:28;102865.28;;;0.27;39.06
50292;BME280;36190;54.980;73.388;2023-03-31T06:17:57;102866.88;;;0.33;38.71
50292;BME280;36190;54.980;73.388;2023-03-31T06:20:28;102859.97;;;0.29;38.67
50292;BME280;36190;54.980;73.388;2023-03-31T06:22:55;102856.66;;;0.20;38.93
50292;BME280;36190;54.980;73.388;2023-03-31T06:25:23;102867.34;;;0.14;39.13
50292;BME280;36190;54.980;73.388;2023-03-31T06:27:50;102857.09;;;0.05;39.05
50292;BME280;36190;54.980;73.388;2023-03-31T06:30:18;102869.44;;;-0.01;39.05
50292;BME280;36190;54.980;73.388;2023-03-31T06:32:46;102853.78;;;-0.04;39.14
50292;BME280;36190;54.980;73.388;2023-03-31T06:35:15;102864.13;;;0.03;39.32
50292;BME280;36190;54.980;73.388;2023-03-31T06:37:43;102863.19;;;0.05;39.28
50292;BME280;36190;54.980;73.388;2023-03-31T06:40:11;102862.16;;;0.11;39.31
50292;BME280;36190;54.980;73.388;2023-03-31T06:42:38;102871.81;;;0.10;39.44
50292;BME280;36190;54.980;73.388;2023-03-31T06:45:07;102868.19;;;0.15;39.32
50292;BME280;36190;54.980;73.388;2023-03-31T06:47:34;102862.81;;;0.19;39.28
50292;BME280;36190;54.980;73.388;2023-03-31T06:50:03;102865.41;;;0.22;39.19
50292;BME280;36190;54.980;73.388;2023-03-31T06:52:33;102868.69;;;0.31;38.87
50292;BME280;36190;54.980;73.388;2023-03-31T06:55:00;102866.72;;;0.39;39.01
50292;BME280;36190;54.980;73.388;2023-03-31T06:57:28;102866.56;;;0.45;38.96
50292;BME280;36190;54.980;73.388;2023-03-31T07:00:00;102862.25;;;0.43;38.95
50292;BME280;36190;54.980;73.388;2023-03-31T07:02:28;102866.38;;;0.51;38.89
50292;BME280;36190;54.980;73.388;2023-03-31T07:04:56;102865.28;;;0.60;38.88
50292;BME280;36190;54.980;73.388;2023-03-31T07:07:24;102868.41;;;0.73;38.79
50292;BME280;36190;54.980;73.388;2023-03-31T07:09:53;102857.50;;;0.87;38.67
50292;BME280;36190;54.980;73.388;2023-03-31T07:12:20;102858.91;;;1.01;38.61
50292;BME280;36190;54.980;73.388;2023-03-31T07:14:48;102852.59;;;1.06;38.33
50292;BME280;36190;54.980;73.388;2023-03-31T07:17:16;102848.59;;;0.93;38.28
50292;BME280;36190;54.980;73.388;2023-03-31T07:19:44;102866.81;;;0.99;38.19
50292;BME280;36190;54.980;73.388;2023-03-31T07:22:12;102869.38;;;1.02;38.26
50292;BME280;36190;54.980;73.388;2023-03-31T07:24:41;102864.81;;;1.07;38.31
50292;BME280;36190;54.980;73.388;2023-03-31T07:27:10;102869.00;;;1.15;38.36
50292;BME280;36190;54.980;73.388;2023-03-31T07:29:38;102866.03;;;1.27;38.17
50292;BME280;36190;54.980;73.388;2023-03-31T07:32:05;102864.09;;;1.32;37.69
50292;BME280;36190;54.980;73.388;2023-03-31T07:34:33;102863.13;;;1.35;37.71
50292;BME280;36190;54.980;73.388;2023-03-31T07:37:01;102862.81;;;1.46;37.80
50292;BME280;36190;54.980;73.388;2023-03-31T07:39:28;102866.66;;;1.64;37.69
50292;BME280;36190;54.980;73.388;2023-03-31T07:41:56;102864.47;;;1.77;37.22
50292;BME280;36190;54.980;73.388;2023-03-31T07:44:25;102861.56;;;1.86;37.17
50292;BME280;36190;54.980;73.388;2023-03-31T07:46:52;102858.59;;;1.96;37.12
50292;BME280;36190;54.980;73.388;2023-03-31T07:49:20;102862.56;;;2.09;37.06
50292;BME280;36190;54.980;73.388;2023-03-31T07:51:47;102860.81;;;2.35;36.98
50292;BME280;36190;54.980;73.388;2023-03-31T07:54:15;102867.91;;;2.58;36.59
50292;BME280;36190;54.980;73.388;2023-03-31T07:56:42;102858.34;;;2.80;36.57
50292;BME280;36190;54.980;73.388;2023-03-31T07:59:10;102863.84;;;2.97;36.44
50292;BME280;36190;54.980;73.388;2023-03-31T08:01:39;102865.13;;;3.11;36.29
50292;BME280;36190;54.980;73.388;2023-03-31T08:04:08;102859.63;;;3.17;36.19
50292;BME280;36190;54.980;73.388;2023-03-31T08:06:36;102862.59;;;3.32;36.17
50292;BME280;36190;54.980;73.388;2023-03-31T08:09:04;102848.94;;;3.42;35.86
50292;BME280;36190;54.980;73.388;2023-03-31T08:11:33;102848.28;;;3.60;36.00
50292;BME280;36190;54.980;73.388;2023-03-31T08:14:00;102846.88;;;3.73;35.69
50292;BME280;36190;54.980;73.388;2023-03-31T08:16:28;102845.75;;;3.79;35.54
50292;BME280;36190;54.980;73.388;2023-03-31T08:18:57;102847.16;;;3.88;35.29
50292;BME280;36190;54.980;73.388;2023-03-31T08:21:24;102847.31;;;4.05;35.10
50292;BME280;36190;54.980;73.388;2023-03-31T08:23:54;102846.06;;;4.14;34.79
50292;BME280;36190;54.980;73.388;2023-03-31T08:26:21;102838.41;;;4.29;34.76
50292;BME280;36190;54.980;73.388;2023-03-31T08:28:51;102838.19;;;4.54;34.71
50292;BME280;36190;54.980;73.388;2023-03-31T08:31:19;102827.19;;;4.63;34.40
50292;BME280;36190;54.980;73.388;2023-03-31T08:33:48;102845.53;;;4.87;34.24
50292;BME280;36190;54.980;73.388;2023-03-31T08:36:17;102849.41;;;4.99;33.89
50292;BME280;36190;54.980;73.388;2023-03-31T08:38:45;102842.53;;;5.14;33.74
50292;BME280;36190;54.980;73.388;2023-03-31T08:41:26;102843.53;;;5.31;33.48
50292;BME280;36190;54.980;73.388;2023-03-31T08:43:57;102848.94;;;5.47;33.48
50292;BME280;36190;54.980;73.388;2023-03-31T08:46:28;102858.06;;;5.59;33.11
50292;BME280;36190;54.980;73.388;2023-03-31T08:48:58;102842.75;;;5.66;33.13
50292;BME280;36190;54.980;73.388;2023-03-31T08:51:31;102845.00;;;5.73;32.53
50292;BME280;36190;54.980;73.388;2023-03-31T08:54:01;102832.66;;;5.91;32.85
50292;BME280;36190;54.980;73.388;2023-03-31T08:56:32;102823.06;;;6.07;32.47
50292;BME280;36190;54.980;73.388;2023-03-31T08:59:04;102835.31;;;6.27;32.33
50292;BME280;36190;54.980;73.388;2023-03-31T09:01:39;102824.66;;;6.44;32.08
50292;BME280;36190;54.980;73.388;2023-03-31T09:04:20;102831.69;;;6.79;31.41
50292;BME280;36190;54.980;73.388;2023-03-31T09:06:58;102831.97;;;7.07;31.29
50292;BME280;36190;54.980;73.388;2023-03-31T09:09:37;102831.28;;;7.19;30.81
50292;BME280;36190;54.980;73.388;2023-03-31T09:12:10;102825.97;;;7.35;30.99
50292;BME280;36190;54.980;73.388;2023-03-31T09:14:42;102821.56;;;7.66;30.58
50292;BME280;36190;54.980;73.388;2023-03-31T09:17:16;102830.00;;;7.89;30.45
50292;BME280;36190;54.980;73.388;2023-03-31T09:19:49;102833.97;;;7.96;30.34
50292;BME280;36190;54.980;73.388;2023-03-31T09:22:22;102837.16;;;8.03;29.98
50292;BME280;36190;54.980;73.388;2023-03-31T09:24:56;102829.56;;;8.11;29.58
50292;BME280;36190;54.980;73.388;2023-03-31T09:27:27;102832.78;;;8.02;29.72
50292;BME280;36190;54.980;73.388;2023-03-31T09:30:00;102821.44;;;7.84;29.81
50292;BME280;36190;54.980;73.388;2023-03-31T09:32:30;102825.44;;;7.91;29.81
50292;BME280;36190;54.980;73.388;2023-03-31T09:35:01;102830.97;;;8.03;29.28
50292;BME280;36190;54.980;73.388;2023-03-31T09:37:31;102830.72;;;8.22;29.44
50292;BME280;36190;54.980;73.388;2023-03-31T09:39:59;102831.22;;;8.43;29.09
50292;BME280;36190;54.980;73.388;2023-03-31T09:42:32;102829.19;;;8.63;29.01
50292;BME280;36190;54.980;73.388;2023-03-31T09:45:00;102833.34;;;8.67;28.81
50292;BME280;36190;54.980;73.388;2023-03-31T09:47:31;102838.00;;;8.78;28.18
50292;BME280;36190;54.980;73.388;2023-03-31T09:50:00;102837.50;;;9.00;28.14
50292;BME280;36190;54.980;73.388;2023-03-31T09:52:30;102835.09;;;9.25;28.01
50292;BME280;36190;54.980;73.388;2023-03-31T09:55:00;102837.69;;;9.39;27.69
50292;BME280;36190;54.980;73.388;2023-03-31T09:57:29;102830.56;;;9.40;27.78
50292;BME280;36190;54.980;73.388;2023-03-31T10:00:02;102836.69;;;9.55;27.68
50292;BME280;36190;54.980;73.388;2023-03-31T10:02:40;102839.41;;;9.68;27.70
50292;BME280;36190;54.980;73.388;2023-03-31T10:05:21;102836.34;;;9.87;26.96
50292;BME280;36190;54.980;73.388;2023-03-31T10:07:53;102833.84;;;9.98;27.08
50292;BME280;36190;54.980;73.388;2023-03-31T10:10:35;102825.53;;;10.16;26.96
50292;BME280;36190;54.980;73.388;2023-03-31T10:13:07;102815.03;;;10.00;26.45
50292;BME280;36190;54.980;73.388;2023-03-31T10:15:36;102830.69;;;9.79;27.03
50292;BME280;36190;54.980;73.388;2023-03-31T10:18:04;102831.00;;;9.74;27.03
50292;BME280;36190;54.980;73.388;2023-03-31T10:20:33;102833.19;;;9.95;27.22
50292;BME280;36190;54.980;73.388;2023-03-31T10:23:11;102817.63;;;10.14;27.14
50292;BME280;36190;54.980;73.388;2023-03-31T10:25:42;102831.84;;;10.28;27.30
50292;BME280;36190;54.980;73.388;2023-03-31T10:28:11;102829.25;;;10.39;27.19
50292;BME280;36190;54.980;73.388;2023-03-31T10:30:46;102832.81;;;10.53;26.61
50292;BME280;36190;54.980;73.388;2023-03-31T10:33:17;102823.06;;;10.78;26.67
50292;BME280;36190;54.980;73.388;2023-03-31T10:35:47;102826.53;;;10.91;26.58
50292;BME280;36190;54.980;73.388;2023-03-31T10:38:23;102827.22;;;10.82;26.43
50292;BME280;36190;54.980;73.388;2023-03-31T10:40:54;102808.47;;;10.57;26.98
50292;BME280;36190;54.980;73.388;2023-03-31T10:43:25;102825.94;;;10.75;26.84
50292;BME280;36190;54.980;73.388;2023-03-31T10:45:55;102830.50;;;10.98;27.05
50292;BME280;36190;54.980;73.388;2023-03-31T10:48:25;102830.34;;;11.13;26.84
50292;BME280;36190;54.980;73.388;2023-03-31T10:50:53;102826.66;;;11.27;26.95
50292;BME280;36190;54.980;73.388;2023-03-31T10:53:26;102826.38;;;11.43;26.71
50292;BME280;36190;54.980;73.388;2023-03-31T10:56:04;102826.97;;;11.71;26.38
50292;BME280;36190;54.980;73.388;2023-03-31T10:58:50;102821.72;;;11.94;26.16
50292;BME280;36190;54.980;73.388;2023-03-31T11:01:31;102822.03;;;12.14;26.01
50292;BME280;36190;54.980;73.388;2023-03-31T11:04:11;102795.41;;;11.88;25.79
50292;BME280;36190;54.980;73.388;2023-03-31T11:06:53;102825.31;;;12.06;25.51
50292;BME280;36190;54.980;73.388;2023-03-31T11:09:35;102820.34;;;12.24;25.82
50292;BME280;36190;54.980;73.388;2023-03-31T11:12:15;102820.59;;;12.44;25.83
50292;BME280;36190;54.980;73.388;2023-03-31T11:14:53;102825.97;;;12.44;25.55
50292;BME280;36190;54.980;73.388;2023-03-31T11:17:33;102832.03;;;12.46;25.74
50292;BME280;36190;54.980;73.388;2023-03-31T11:20:11;102829.88;;;12.51;25.72
50292;BME280;36190;54.980;73.388;2023-03-31T11:22:47;102833.50;;;12.61;25.73
50292;BME280;36190;54.980;73.388;2023-03-31T11:25:27;102834.97;;;12.88;25.44
50292;BME280;36190;54.980;73.388;2023-03-31T11:28:24;102839.44;;;13.11;25.28
50292;BME280;36190;54.980;73.388;2023-03-31T11:31:00;102828.94;;;13.19;25.23
50292;BME280;36190;54.980;73.388;2023-03-31T11:33:47;102829.25;;;13.37;25.01
50292;BME280;36190;54.980;73.388;2023-03-31T11:36:39;102828.97;;;13.52;25.17
50292;BME280;36190;54.980;73.388;2023-03-31T11:39:17;102832.19;;;13.45;24.84
50292;BME280;36190;54.980;73.388;2023-03-31T11:41:52;102833.25;;;13.54;25.15
50292;BME280;36190;54.980;73.388;2023-03-31T11:44:23;102822.81;;;13.72;25.22
50292;BME280;36190;54.980;73.388;2023-03-31T11:46:53;102826.09;;;13.97;24.94
50292;BME280;36190;54.980;73.388;2023-03-31T11:49:23;102809.25;;;14.16;24.47
50292;BME280;36190;54.980;73.388;2023-03-31T11:51:55;102820.03;;;14.26;24.41
50292;BME280;36190;54.980;73.388;2023-03-31T11:54:28;102809.69;;;14.22;24.16
50292;BME280;36190;54.980;73.388;2023-03-31T11:57:02;102823.19;;;14.32;24.05
50292;BME280;36190;54.980;73.388;2023-03-31T11:59:33;102818.88;;;14.19;24.47
50292;BME280;36190;54.980;73.388;2023-03-31T12:02:13;102826.25;;;14.27;24.09
50292;BME280;36190;54.980;73.388;2023-03-31T12:04:44;102828.88;;;14.17;24.31
50292;BME280;36190;54.980;73.388;2023-03-31T12:07:22;102806.09;;;14.11;24.06
50292;BME280;36190;54.980;73.388;2023-03-31T12:09:54;102825.41;;;14.26;24.30
50292;BME280;36190;54.980;73.388;2023-03-31T12:12:32;102823.13;;;14.22;24.15
50292;BME280;36190;54.980;73.388;2023-03-31T12:15:09;102819.66;;;14.10;24.12
50292;BME280;36190;54.980;73.388;2023-03-31T12:17:40;102815.03;;;13.91;24.43
50292;BME280;36190;54.980;73.388;2023-03-31T12:20:16;102822.69;;;13.95;24.38
50292;BME280;36190;54.980;73.388;2023-03-31T12:22:47;102826.41;;;13.83;24.45
50292;BME280;36190;54.980;73.388;2023-03-31T12:25:21;102825.38;;;13.74;24.21
50292;BME280;36190;54.980;73.388;2023-03-31T12:27:52;102824.00;;;13.47;24.51
50292;BME280;36190;54.980;73.388;2023-03-31T12:30:27;102832.41;;;13.42;24.47
50292;BME280;36190;54.980;73.388;2023-03-31T12:33:05;102829.50;;;13.34;24.73
50292;BME280;36190;54.980;73.388;2023-03-31T12:35:42;102831.84;;;13.27;24.74
50292;BME280;36190;54.980;73.388;2023-03-31T12:38:24;102829.53;;;13.23;24.69
50292;BME280;36190;54.980;73.388;2023-03-31T12:41:02;102825.06;;;13.12;24.73
50292;BME280;36190;54.980;73.388;2023-03-31T12:43:57;102825.44;;;13.07;24.55
50292;BME280;36190;54.980;73.388;2023-03-31T12:47:06;102827.31;;;12.84;24.54
50292;BME280;36190;54.980;73.388;2023-03-31T12:49:57;102813.53;;;12.43;24.71
50292;BME280;36190;54.980;73.388;2023-03-31T12:52:35;102826.72;;;11.63;25.31
50292;BME280;36190;54.980;73.388;2023-03-31T12:55:23;102808.66;;;10.41;26.33
50292;BME280;36190;54.980;73.388;2023-03-31T12:58:40;102819.88;;;9.12;27.26
50292;BME280;36190;54.980;73.388;2023-03-31T13:01:18;102810.06;;;7.96;28.63
50292;BME280;36190;54.980;73.388;2023-03-31T13:03:53;102811.34;;;7.28;29.39
50292;BME280;36190;54.980;73.388;2023-03-31T13:06:52;102817.91;;;6.72;30.05
50292;BME280;36190;54.980;73.388;2023-03-31T13:09:42;102806.38;;;6.22;30.68
50292;BME280;36190;54.980;73.388;2023-03-31T13:12:14;102814.88;;;5.76;31.42
50292;BME280;36190;54.980;73.388;2023-03-31T13:14:44;102807.81;;;5.40;31.86